sensor_id;sensor_type;location;lat;lon;timestamp;P1;durP1;ratioP1;P2;durP2;ratioP2
77800;SDS011;66991;50.058;14.454;2023-08-20T00:01:02;12.88;;;6.95;;
77800;SDS011;66991;50.058;14.454;2023-08-20T00:03:29;12.88;;;6.75;;
77800;SDS011;66991;50.058;14.454;2023-08-20T00:05:54;9.40;;;6.30;;
77800;SDS011;66991;50.058;14.454;2023-08-20T00:08:20;9.15;;;6.82;;
77800;SDS011;66991;50.058;14.454;2023-08-20T00:10:45;12.35;;;7.78;;
77800;SDS011;66991;50.058;14.454;2023-08-20T00:13:11;13.38;;;7.18;;
77800;SDS011;66991;50.058;14.454;2023-08-20T00:15:36;19.50;;;7.20;;
77800;SDS011;66991;50.058;14.454;2023-08-20T00:18:02;19.90;;;7.43;;
77800;SDS011;66991;50.058;14.454;2023-08-20T00:20:28;13.30;;;7.07;;
77800;SDS011;66991;50.058;14.454;2023-08-20T00:22:54;16.08;;;7.63;;
77800;SDS011;66991;50.058;14.454;2023-08-20T00:25:19;14.25;;;7.05;;
77800;SDS011;66991;50.058;14.454;2023-08-20T00:27:44;11.73;;;7.30;;
77800;SDS011;66991;50.058;14.454;2023-08-20T00:30:10;13.45;;;7.70;;
77800;SDS011;66991;50.058;14.454;2023-08-20T00:32:36;10.13;;;7.32;;
77800;SDS011;66991;50.058;14.454;2023-08-20T00:35:01;11.10;;;6.30;;
77800;SDS011;66991;50.058;14.454;2023-08-20T00:37:27;13.20;;;7.13;;
77800;SDS011;66991;50.058;14.454;2023-08-20T00:39:53;10.88;;;6.80;;
77800;SDS011;66991;50.058;14.454;2023-08-20T00:42:18;11.75;;;7.57;;
77800;SDS011;66991;50.058;14.454;2023-08-20T00:44:43;11.60;;;7.55;;
77800;SDS011;66991;50.058;14.454;2023-08-20T00:47:12;9.38;;;7.32;;
77800;SDS011;66991;50.058;14.454;2023-08-20T00:49:39;11.88;;;7.32;;
77800;SDS011;66991;50.058;14.454;2023-08-20T00:52:05;11.70;;;7.60;;
77800;SDS011;66991;50.058;14.454;2023-08-20T00:54:33;12.85;;;8.23;;
77800;SDS011;66991;50.058;14.454;2023-08-20T00:56:58;8.80;;;7.07;;
77800;SDS011;66991;50.058;14.454;2023-08-20T00:59:24;12.55;;;7.65;;
77800;SDS011;66991;50.058;14.454;2023-08-20T01:01:50;10.45;;;7.78;;
77800;SDS011;66991;50.058;14.454;2023-08-20T01:04:15;9.77;;;7.32;;
77800;SDS011;66991;50.058;14.454;2023-08-20T01:06:46;10.63;;;7.75;;
77800;SDS011;66991;50.058;14.454;2023-08-20T01:12:08;10.70;;;7.30;;
77800;SDS011;66991;50.058;14.454;2023-08-20T01:14:35;17.02;;;8.02;;
77800;SDS011;66991;50.058;14.454;2023-08-20T01:17:00;10.93;;;7.60;;
77800;SDS011;66991;50.058;14.454;2023-08-20T01:19:25;9.30;;;7.65;;
77800;SDS011;66991;50.058;14.454;2023-08-20T01:30:06;11.18;;;8.30;;
77800;SDS011;66991;50.058;14.454;2023-08-20T01:32:33;12.20;;;7.53;;
77800;SDS011;66991;50.058;14.454;2023-08-20T01:34:59;9.05;;;7.63;;
77800;SDS011;66991;50.058;14.454;2023-08-20T01:37:24;11.45;;;8.38;;
77800;SDS011;66991;50.058;14.454;2023-08-20T01:39:49;10.13;;;8.63;;
77800;SDS011;66991;50.058;14.454;2023-08-20T01:42:15;11.57;;;8.60;;
77800;SDS011;66991;50.058;14.454;2023-08-20T01:44:40;12.77;;;8.55;;
77800;SDS011;66991;50.058;14.454;2023-08-20T01:47:05;11.88;;;8.52;;
77800;SDS011;66991;50.058;14.454;2023-08-20T01:49:30;10.80;;;7.95;;
77800;SDS011;66991;50.058;14.454;2023-08-20T01:51:56;12.63;;;8.30;;
77800;SDS011;66991;50.058;14.454;2023-08-20T01:54:21;13.68;;;8.52;;
77800;SDS011;66991;50.058;14.454;2023-08-20T01:56:47;15.20;;;8.13;;
77800;SDS011;66991;50.058;14.454;2023-08-20T01:59:12;13.35;;;8.90;;
77800;SDS011;66991;50.058;14.454;2023-08-20T02:01:37;12.48;;;8.25;;
77800;SDS011;66991;50.058;14.454;2023-08-20T02:04:03;11.60;;;8.63;;
77800;SDS011;66991;50.058;14.454;2023-08-20T02:06:28;11.63;;;8.50;;
77800;SDS011;66991;50.058;14.454;2023-08-20T02:08:53;11.35;;;8.40;;
77800;SDS011;66991;50.058;14.454;2023-08-20T02:11:19;14.60;;;8.55;;
77800;SDS011;66991;50.058;14.454;2023-08-20T02:13:44;13.55;;;9.05;;
77800;SDS011;66991;50.058;14.454;2023-08-20T02:16:09;12.30;;;8.77;;
77800;SDS011;66991;50.058;14.454;2023-08-20T02:18:35;12.10;;;8.93;;
77800;SDS011;66991;50.058;14.454;2023-08-20T02:21:00;11.90;;;8.80;;
77800;SDS011;66991;50.058;14.454;2023-08-20T02:23:25;10.93;;;8.43;;
77800;SDS011;66991;50.058;14.454;2023-08-20T02:25:51;15.30;;;9.43;;
77800;SDS011;66991;50.058;14.454;2023-08-20T02:28:16;11.38;;;8.82;;
77800;SDS011;66991;50.058;14.454;2023-08-20T02:30:42;12.60;;;8.57;;
77800;SDS011;66991;50.058;14.454;2023-08-20T02:33:08;10.90;;;8.30;;
77800;SDS011;66991;50.058;14.454;2023-08-20T02:35:34;16.40;;;9.35;;
77800;SDS011;66991;50.058;14.454;2023-08-20T02:38:00;10.68;;;8.18;;
77800;SDS011;66991;50.058;14.454;2023-08-20T02:40:25;11.05;;;9.07;;
77800;SDS011;66991;50.058;14.454;2023-08-20T02:42:51;12.02;;;8.88;;
77800;SDS011;66991;50.058;14.454;2023-08-20T02:45:16;10.55;;;8.57;;
77800;SDS011;66991;50.058;14.454;2023-08-20T02:47:41;12.63;;;8.60;;
77800;SDS011;66991;50.058;14.454;2023-08-20T02:50:07;13.05;;;9.35;;
77800;SDS011;66991;50.058;14.454;2023-08-20T02:52:32;11.13;;;8.95;;
77800;SDS011;66991;50.058;14.454;2023-08-20T02:54:58;11.45;;;8.55;;
77800;SDS011;66991;50.058;14.454;2023-08-20T02:57:23;12.20;;;9.55;;
77800;SDS011;66991;50.058;14.454;2023-08-20T02:59:48;21.25;;;9.65;;
77800;SDS011;66991;50.058;14.454;2023-08-20T03:02:14;11.85;;;8.55;;
77800;SDS011;66991;50.058;14.454;2023-08-20T03:04:39;12.43;;;9.05;;
77800;SDS011;66991;50.058;14.454;2023-08-20T03:07:04;13.00;;;9.18;;
77800;SDS011;66991;50.058;14.454;2023-08-20T03:09:30;12.30;;;8.98;;
77800;SDS011;66991;50.058;14.454;2023-08-20T03:11:55;10.45;;;9.20;;
77800;SDS011;66991;50.058;14.454;2023-08-20T03:14:20;16.02;;;9.02;;
77800;SDS011;66991;50.058;14.454;2023-08-20T03:16:46;14.55;;;9.52;;
77800;SDS011;66991;50.058;14.454;2023-08-20T03:19:11;10.45;;;8.57;;
77800;SDS011;66991;50.058;14.454;2023-08-20T03:21:38;14.25;;;8.85;;
77800;SDS011;66991;50.058;14.454;2023-08-20T03:24:04;12.23;;;9.18;;
77800;SDS011;66991;50.058;14.454;2023-08-20T03:26:29;10.82;;;8.93;;
77800;SDS011;66991;50.058;14.454;2023-08-20T03:28:55;12.75;;;9.10;;
77800;SDS011;66991;50.058;14.454;2023-08-20T03:31:20;11.70;;;8.95;;
77800;SDS011;66991;50.058;14.454;2023-08-20T03:33:45;12.90;;;9.10;;
77800;SDS011;66991;50.058;14.454;2023-08-20T03:36:11;11.38;;;9.18;;
77800;SDS011;66991;50.058;14.454;2023-08-20T03:38:36;13.32;;;8.98;;
77800;SDS011;66991;50.058;14.454;2023-08-20T03:41:01;12.50;;;8.68;;
77800;SDS011;66991;50.058;14.454;2023-08-20T03:43:28;11.52;;;8.90;;
77800;SDS011;66991;50.058;14.454;2023-08-20T03:45:53;14.23;;;9.50;;
77800;SDS011;66991;50.058;14.454;2023-08-20T03:48:18;14.45;;;9.77;;
77800;SDS011;66991;50.058;14.454;2023-08-20T03:50:44;12.40;;;9.02;;
77800;SDS011;66991;50.058;14.454;2023-08-20T03:53:09;13.13;;;8.80;;
77800;SDS011;66991;50.058;14.454;2023-08-20T03:55:34;11.50;;;8.93;;
77800;SDS011;66991;50.058;14.454;2023-08-20T03:58:00;15.32;;;8.82;;
77800;SDS011;66991;50.058;14.454;2023-08-20T04:00:25;12.82;;;9.23;;
77800;SDS011;66991;50.058;14.454;2023-08-20T04:02:50;11.27;;;8.90;;
77800;SDS011;66991;50.058;14.454;2023-08-20T04:05:16;14.45;;;9.48;;
77800;SDS011;66991;50.058;14.454;2023-08-20T04:07:41;12.75;;;8.93;;
77800;SDS011;66991;50.058;14.454;2023-08-20T04:10:07;13.98;;;9.48;;
77800;SDS011;66991;50.058;14.454;2023-08-20T04:12:33;10.60;;;8.95;;
77800;SDS011;66991;50.058;14.454;2023-08-20T04:14:58;10.65;;;8.65;;
77800;SDS011;66991;50.058;14.454;2023-08-20T04:17:23;12.88;;;9.18;;
77800;SDS011;66991;50.058;14.454;2023-08-20T04:19:48;12.63;;;8.98;;
77800;SDS011;66991;50.058;14.454;2023-08-20T04:22:14;11.10;;;8.82;;
77800;SDS011;66991;50.058;14.454;2023-08-20T04:24:39;11.73;;;9.05;;
77800;SDS011;66991;50.058;14.454;2023-08-20T04:27:04;13.40;;;9.43;;
77800;SDS011;66991;50.058;14.454;2023-08-20T04:29:30;11.85;;;8.65;;
77800;SDS011;66991;50.058;14.454;2023-08-20T04:31:56;12.95;;;8.88;;
77800;SDS011;66991;50.058;14.454;2023-08-20T04:34:21;15.95;;;9.35;;
77800;SDS011;66991;50.058;14.454;2023-08-20T04:36:46;11.05;;;8.77;;
77800;SDS011;66991;50.058;14.454;2023-08-20T04:39:11;12.23;;;9.60;;
77800;SDS011;66991;50.058;14.454;2023-08-20T04:41:37;13.02;;;9.35;;
77800;SDS011;66991;50.058;14.454;2023-08-20T04:44:02;10.15;;;9.07;;
77800;SDS011;66991;50.058;14.454;2023-08-20T04:46:28;14.20;;;8.98;;
77800;SDS011;66991;50.058;14.454;2023-08-20T04:48:53;11.95;;;9.10;;
77800;SDS011;66991;50.058;14.454;2023-08-20T04:51:19;11.32;;;8.70;;
77800;SDS011;66991;50.058;14.454;2023-08-20T04:53:44;10.85;;;9.00;;
77800;SDS011;66991;50.058;14.454;2023-08-20T04:56:10;14.43;;;9.60;;
77800;SDS011;66991;50.058;14.454;2023-08-20T04:58:35;12.55;;;8.93;;
77800;SDS011;66991;50.058;14.454;2023-08-20T05:01:00;11.48;;;8.98;;
77800;SDS011;66991;50.058;14.454;2023-08-20T05:03:26;13.85;;;9.32;;
77800;SDS011;66991;50.058;14.454;2023-08-20T05:05:51;12.38;;;9.00;;
77800;SDS011;66991;50.058;14.454;2023-08-20T05:08:16;12.13;;;9.77;;
77800;SDS011;66991;50.058;14.454;2023-08-20T05:10:42;14.38;;;9.40;;
77800;SDS011;66991;50.058;14.454;2023-08-20T05:13:08;13.60;;;10.02;;
77800;SDS011;66991;50.058;14.454;2023-08-20T05:15:33;12.82;;;9.63;;
77800;SDS011;66991;50.058;14.454;2023-08-20T05:17:58;11.82;;;9.80;;
77800;SDS011;66991;50.058;14.454;2023-08-20T05:20:24;15.52;;;10.25;;
77800;SDS011;66991;50.058;14.454;2023-08-20T05:22:49;14.98;;;10.98;;
77800;SDS011;66991;50.058;14.454;2023-08-20T05:25:14;15.45;;;10.43;;
77800;SDS011;66991;50.058;14.454;2023-08-20T05:27:39;14.63;;;9.70;;
77800;SDS011;66991;50.058;14.454;2023-08-20T05:30:05;13.88;;;9.80;;
77800;SDS011;66991;50.058;14.454;2023-08-20T05:32:33;14.95;;;9.45;;
77800;SDS011;66991;50.058;14.454;2023-08-20T05:34:58;12.75;;;9.23;;
77800;SDS011;66991;50.058;14.454;2023-08-20T05:37:24;11.15;;;9.13;;
77800;SDS011;66991;50.058;14.454;2023-08-20T05:39:49;11.10;;;8.95;;
77800;SDS011;66991;50.058;14.454;2023-08-20T05:42:14;12.27;;;8.82;;
77800;SDS011;66991;50.058;14.454;2023-08-20T05:44:39;12.95;;;9.15;;
77800;SDS011;66991;50.058;14.454;2023-08-20T05:47:05;13.05;;;9.65;;
77800;SDS011;66991;50.058;14.454;2023-08-20T05:49:30;13.50;;;9.20;;
77800;SDS011;66991;50.058;14.454;2023-08-20T05:51:56;13.70;;;9.45;;
77800;SDS011;66991;50.058;14.454;2023-08-20T05:54:21;12.45;;;9.88;;
77800;SDS011;66991;50.058;14.454;2023-08-20T05:56:46;14.07;;;9.93;;
77800;SDS011;66991;50.058;14.454;2023-08-20T05:59:12;13.68;;;10.18;;
77800;SDS011;66991;50.058;14.454;2023-08-20T06:01:37;13.18;;;10.65;;
77800;SDS011;66991;50.058;14.454;2023-08-20T06:04:03;12.40;;;9.32;;
77800;SDS011;66991;50.058;14.454;2023-08-20T06:06:28;10.80;;;9.30;;
77800;SDS011;66991;50.058;14.454;2023-08-20T06:08:54;12.60;;;9.30;;
77800;SDS011;66991;50.058;14.454;2023-08-20T06:11:20;13.45;;;9.57;;
77800;SDS011;66991;50.058;14.454;2023-08-20T06:13:45;13.02;;;8.80;;
77800;SDS011;66991;50.058;14.454;2023-08-20T06:16:10;12.20;;;9.73;;
77800;SDS011;66991;50.058;14.454;2023-08-20T06:18:36;11.65;;;9.45;;
77800;SDS011;66991;50.058;14.454;2023-08-20T06:21:02;12.00;;;9.20;;
77800;SDS011;66991;50.058;14.454;2023-08-20T06:23:27;10.80;;;8.82;;
77800;SDS011;66991;50.058;14.454;2023-08-20T06:25:53;14.25;;;9.07;;
77800;SDS011;66991;50.058;14.454;2023-08-20T06:28:18;10.93;;;8.85;;
77800;SDS011;66991;50.058;14.454;2023-08-20T06:30:44;12.20;;;8.57;;
77800;SDS011;66991;50.058;14.454;2023-08-20T06:33:10;10.63;;;9.23;;
77800;SDS011;66991;50.058;14.454;2023-08-20T06:35:36;12.35;;;9.07;;
77800;SDS011;66991;50.058;14.454;2023-08-20T06:38:01;11.30;;;8.98;;
77800;SDS011;66991;50.058;14.454;2023-08-20T06:40:27;10.57;;;8.63;;
77800;SDS011;66991;50.058;14.454;2023-08-20T06:42:52;12.95;;;9.02;;
77800;SDS011;66991;50.058;14.454;2023-08-20T06:45:17;12.52;;;9.30;;
77800;SDS011;66991;50.058;14.454;2023-08-20T06:47:43;10.48;;;8.73;;
77800;SDS011;66991;50.058;14.454;2023-08-20T06:50:08;11.45;;;9.45;;
77800;SDS011;66991;50.058;14.454;2023-08-20T06:52:34;13.70;;;9.43;;
77800;SDS011;66991;50.058;14.454;2023-08-20T06:54:59;11.85;;;9.00;;
77800;SDS011;66991;50.058;14.454;2023-08-20T06:57:24;15.93;;;9.25;;
77800;SDS011;66991;50.058;14.454;2023-08-20T06:59:50;11.23;;;8.25;;
77800;SDS011;66991;50.058;14.454;2023-08-20T07:02:15;13.13;;;8.77;;
77800;SDS011;66991;50.058;14.454;2023-08-20T07:04:40;14.85;;;9.30;;
77800;SDS011;66991;50.058;14.454;2023-08-20T07:07:06;11.32;;;9.40;;
77800;SDS011;66991;50.058;14.454;2023-08-20T07:09:31;18.83;;;9.07;;
77800;SDS011;66991;50.058;14.454;2023-08-20T07:11:56;16.35;;;10.40;;
77800;SDS011;66991;50.058;14.454;2023-08-20T07:14:22;13.90;;;8.98;;
77800;SDS011;66991;50.058;14.454;2023-08-20T07:16:47;14.43;;;9.32;;
77800;SDS011;66991;50.058;14.454;2023-08-20T07:19:12;24.63;;;9.30;;
77800;SDS011;66991;50.058;14.454;2023-08-20T07:21:38;14.02;;;8.77;;
77800;SDS011;66991;50.058;14.454;2023-08-20T07:24:03;17.27;;;9.48;;
77800;SDS011;66991;50.058;14.454;2023-08-20T07:26:29;12.13;;;8.73;;
77800;SDS011;66991;50.058;14.454;2023-08-20T07:28:54;14.35;;;9.07;;
77800;SDS011;66991;50.058;14.454;2023-08-20T07:31:26;12.80;;;8.80;;
77800;SDS011;66991;50.058;14.454;2023-08-20T07:33:55;13.45;;;8.05;;
77800;SDS011;66991;50.058;14.454;2023-08-20T07:36:22;15.82;;;8.77;;
77800;SDS011;66991;50.058;14.454;2023-08-20T07:38:49;13.82;;;9.07;;
77800;SDS011;66991;50.058;14.454;2023-08-20T07:41:15;18.98;;;8.77;;
77800;SDS011;66991;50.058;14.454;2023-08-20T07:43:40;11.02;;;8.68;;
77800;SDS011;66991;50.058;14.454;2023-08-20T07:46:06;13.60;;;8.45;;
77800;SDS011;66991;50.058;14.454;2023-08-20T07:48:32;12.32;;;8.77;;
77800;SDS011;66991;50.058;14.454;2023-08-20T07:50:58;14.27;;;9.23;;
77800;SDS011;66991;50.058;14.454;2023-08-20T07:53:23;15.10;;;8.90;;
77800;SDS011;66991;50.058;14.454;2023-08-20T07:55:48;15.05;;;9.77;;
77800;SDS011;66991;50.058;14.454;2023-08-20T07:58:14;15.13;;;9.18;;
77800;SDS011;66991;50.058;14.454;2023-08-20T08:00:39;15.55;;;8.82;;
77800;SDS011;66991;50.058;14.454;2023-08-20T08:03:05;11.88;;;7.88;;
77800;SDS011;66991;50.058;14.454;2023-08-20T08:05:30;15.13;;;8.60;;
77800;SDS011;66991;50.058;14.454;2023-08-20T08:07:55;14.40;;;9.05;;
77800;SDS011;66991;50.058;14.454;2023-08-20T08:10:21;12.27;;;7.75;;
77800;SDS011;66991;50.058;14.454;2023-08-20T08:12:46;12.18;;;8.60;;
77800;SDS011;66991;50.058;14.454;2023-08-20T08:15:12;13.25;;;8.77;;
77800;SDS011;66991;50.058;14.454;2023-08-20T08:17:38;12.50;;;9.02;;
77800;SDS011;66991;50.058;14.454;2023-08-20T08:20:03;13.60;;;8.38;;
77800;SDS011;66991;50.058;14.454;2023-08-20T08:22:29;14.23;;;8.55;;
77800;SDS011;66991;50.058;14.454;2023-08-20T08:24:55;17.73;;;8.52;;
77800;SDS011;66991;50.058;14.454;2023-08-20T08:27:20;11.10;;;8.57;;
77800;SDS011;66991;50.058;14.454;2023-08-20T08:29:45;11.23;;;9.10;;
77800;SDS011;66991;50.058;14.454;2023-08-20T08:32:11;13.02;;;8.52;;
77800;SDS011;66991;50.058;14.454;2023-08-20T08:34:36;11.27;;;8.80;;
77800;SDS011;66991;50.058;14.454;2023-08-20T08:37:01;20.23;;;8.63;;
77800;SDS011;66991;50.058;14.454;2023-08-20T08:39:27;12.52;;;9.13;;
77800;SDS011;66991;50.058;14.454;2023-08-20T08:41:54;17.60;;;9.77;;
77800;SDS011;66991;50.058;14.454;2023-08-20T08:44:22;18.50;;;10.70;;
77800;SDS011;66991;50.058;14.454;2023-08-20T08:46:48;20.02;;;10.68;;
77800;SDS011;66991;50.058;14.454;2023-08-20T08:49:15;19.40;;;10.68;;
77800;SDS011;66991;50.058;14.454;2023-08-20T08:51:40;17.30;;;10.48;;
77800;SDS011;66991;50.058;14.454;2023-08-20T08:54:07;16.35;;;9.70;;
77800;SDS011;66991;50.058;14.454;2023-08-20T08:56:33;14.07;;;9.82;;
77800;SDS011;66991;50.058;14.454;2023-08-20T08:58:59;14.15;;;9.43;;
77800;SDS011;66991;50.058;14.454;2023-08-20T09:01:24;14.95;;;9.65;;
77800;SDS011;66991;50.058;14.454;2023-08-20T09:03:50;13.80;;;9.68;;
77800;SDS011;66991;50.058;14.454;2023-08-20T09:06:15;18.80;;;10.13;;
77800;SDS011;66991;50.058;14.454;2023-08-20T09:08:41;14.25;;;10.93;;
77800;SDS011;66991;50.058;14.454;2023-08-20T09:11:06;15.93;;;10.02;;
77800;SDS011;66991;50.058;14.454;2023-08-20T09:13:35;16.13;;;10.68;;
77800;SDS011;66991;50.058;14.454;2023-08-20T09:16:08;12.82;;;9.18;;
77800;SDS011;66991;50.058;14.454;2023-08-20T09:18:38;13.00;;;10.32;;
77800;SDS011;66991;50.058;14.454;2023-08-20T09:21:08;17.25;;;11.52;;
77800;SDS011;66991;50.058;14.454;2023-08-20T09:23:34;14.38;;;11.13;;
77800;SDS011;66991;50.058;14.454;2023-08-20T09:26:03;11.73;;;9.20;;
77800;SDS011;66991;50.058;14.454;2023-08-20T09:28:31;16.02;;;10.82;;
77800;SDS011;66991;50.058;14.454;2023-08-20T09:31:05;12.48;;;10.23;;
77800;SDS011;66991;50.058;14.454;2023-08-20T09:33:31;12.18;;;10.63;;
77800;SDS011;66991;50.058;14.454;2023-08-20T09:35:56;15.70;;;11.80;;
77800;SDS011;66991;50.058;14.454;2023-08-20T09:38:22;18.30;;;11.70;;
77800;SDS011;66991;50.058;14.454;2023-08-20T09:40:48;14.98;;;11.55;;
77800;SDS011;66991;50.058;14.454;2023-08-20T09:43:15;14.00;;;11.07;;
77800;SDS011;66991;50.058;14.454;2023-08-20T09:45:41;19.65;;;12.00;;
77800;SDS011;66991;50.058;14.454;2023-08-20T09:48:07;22.70;;;12.30;;
77800;SDS011;66991;50.058;14.454;2023-08-20T09:50:35;17.55;;;11.30;;
77800;SDS011;66991;50.058;14.454;2023-08-20T09:53:12;14.43;;;11.68;;
77800;SDS011;66991;50.058;14.454;2023-08-20T09:55:48;15.18;;;11.95;;
77800;SDS011;66991;50.058;14.454;2023-08-20T09:58:14;14.93;;;10.98;;
77800;SDS011;66991;50.058;14.454;2023-08-20T10:00:41;18.67;;;11.95;;
77800;SDS011;66991;50.058;14.454;2023-08-20T10:03:07;15.77;;;11.13;;
77800;SDS011;66991;50.058;14.454;2023-08-20T10:05:32;14.30;;;11.13;;
77800;SDS011;66991;50.058;14.454;2023-08-20T10:07:58;14.18;;;10.88;;
77800;SDS011;66991;50.058;14.454;2023-08-20T10:10:24;13.20;;;9.77;;
77800;SDS011;66991;50.058;14.454;2023-08-20T10:12:49;13.85;;;10.30;;
77800;SDS011;66991;50.058;14.454;2023-08-20T10:15:15;15.23;;;11.23;;
77800;SDS011;66991;50.058;14.454;2023-08-20T10:17:42;12.60;;;9.57;;
77800;SDS011;66991;50.058;14.454;2023-08-20T10:20:09;12.70;;;9.40;;
77800;SDS011;66991;50.058;14.454;2023-08-20T10:22:41;23.42;;;14.70;;
77800;SDS011;66991;50.058;14.454;2023-08-20T10:25:08;13.18;;;11.13;;
77800;SDS011;66991;50.058;14.454;2023-08-20T10:27:35;16.77;;;10.20;;
77800;SDS011;66991;50.058;14.454;2023-08-20T10:30:07;21.02;;;15.05;;
77800;SDS011;66991;50.058;14.454;2023-08-20T10:35:11;17.00;;;9.75;;
77800;SDS011;66991;50.058;14.454;2023-08-20T10:37:37;13.50;;;9.05;;
77800;SDS011;66991;50.058;14.454;2023-08-20T10:40:04;11.60;;;9.30;;
77800;SDS011;66991;50.058;14.454;2023-08-20T10:42:30;12.95;;;9.07;;
77800;SDS011;66991;50.058;14.454;2023-08-20T10:47:23;20.45;;;12.85;;
77800;SDS011;66991;50.058;14.454;2023-08-20T10:49:51;22.45;;;10.00;;
77800;SDS011;66991;50.058;14.454;2023-08-20T10:52:18;11.35;;;8.85;;
77800;SDS011;66991;50.058;14.454;2023-08-20T10:54:44;13.10;;;8.23;;
77800;SDS011;66991;50.058;14.454;2023-08-20T10:57:09;24.05;;;15.75;;
77800;SDS011;66991;50.058;14.454;2023-08-20T10:59:34;15.20;;;10.75;;
77800;SDS011;66991;50.058;14.454;2023-08-20T11:04:31;11.87;;;8.53;;
77800;SDS011;66991;50.058;14.454;2023-08-20T11:06:57;11.45;;;8.90;;
77800;SDS011;66991;50.058;14.454;2023-08-20T11:09:24;12.27;;;9.50;;
77800;SDS011;66991;50.058;14.454;2023-08-20T11:11:50;13.07;;;8.35;;
77800;SDS011;66991;50.058;14.454;2023-08-20T11:14:17;12.82;;;7.93;;
77800;SDS011;66991;50.058;14.454;2023-08-20T11:16:44;11.30;;;8.10;;
77800;SDS011;66991;50.058;14.454;2023-08-20T11:19:11;10.93;;;8.38;;
77800;SDS011;66991;50.058;14.454;2023-08-20T11:21:40;10.50;;;8.00;;
77800;SDS011;66991;50.058;14.454;2023-08-20T11:24:07;15.48;;;8.48;;
77800;SDS011;66991;50.058;14.454;2023-08-20T11:26:33;12.45;;;7.63;;
77800;SDS011;66991;50.058;14.454;2023-08-20T11:28:59;19.75;;;15.27;;
77800;SDS011;66991;50.058;14.454;2023-08-20T11:31:25;16.60;;;9.43;;
77800;SDS011;66991;50.058;14.454;2023-08-20T11:33:50;11.30;;;9.25;;
77800;SDS011;66991;50.058;14.454;2023-08-20T11:36:16;11.07;;;8.98;;
77800;SDS011;66991;50.058;14.454;2023-08-20T11:38:51;12.80;;;7.65;;
77800;SDS011;66991;50.058;14.454;2023-08-20T11:41:20;9.88;;;7.53;;
77800;SDS011;66991;50.058;14.454;2023-08-20T11:43:46;9.63;;;7.15;;
77800;SDS011;66991;50.058;14.454;2023-08-20T11:46:13;11.30;;;7.32;;
77800;SDS011;66991;50.058;14.454;2023-08-20T11:48:57;10.30;;;7.00;;
77800;SDS011;66991;50.058;14.454;2023-08-20T11:51:34;10.80;;;7.45;;
77800;SDS011;66991;50.058;14.454;2023-08-20T11:54:00;7.28;;;6.32;;
77800;SDS011;66991;50.058;14.454;2023-08-20T11:56:26;11.55;;;6.25;;
77800;SDS011;66991;50.058;14.454;2023-08-20T11:58:52;9.88;;;6.88;;
77800;SDS011;66991;50.058;14.454;2023-08-20T12:01:20;7.30;;;6.45;;
77800;SDS011;66991;50.058;14.454;2023-08-20T12:03:45;7.57;;;6.38;;
77800;SDS011;66991;50.058;14.454;2023-08-20T12:06:20;8.52;;;6.13;;
77800;SDS011;66991;50.058;14.454;2023-08-20T12:08:47;12.38;;;6.57;;
77800;SDS011;66991;50.058;14.454;2023-08-20T12:11:13;13.65;;;6.70;;
77800;SDS011;66991;50.058;14.454;2023-08-20T12:13:38;7.90;;;6.55;;
77800;SDS011;66991;50.058;14.454;2023-08-20T12:16:03;8.32;;;6.55;;
77800;SDS011;66991;50.058;14.454;2023-08-20T12:18:29;9.20;;;6.35;;
77800;SDS011;66991;50.058;14.454;2023-08-20T12:20:55;8.20;;;6.05;;
77800;SDS011;66991;50.058;14.454;2023-08-20T12:23:20;8.30;;;6.43;;
77800;SDS011;66991;50.058;14.454;2023-08-20T12:25:49;9.95;;;6.50;;
77800;SDS011;66991;50.058;14.454;2023-08-20T12:28:15;12.10;;;6.88;;
77800;SDS011;66991;50.058;14.454;2023-08-20T12:30:41;7.85;;;5.82;;
77800;SDS011;66991;50.058;14.454;2023-08-20T12:33:06;9.43;;;6.20;;
77800;SDS011;66991;50.058;14.454;2023-08-20T12:35:32;10.50;;;6.07;;
77800;SDS011;66991;50.058;14.454;2023-08-20T12:37:57;9.07;;;5.50;;
77800;SDS011;66991;50.058;14.454;2023-08-20T12:40:22;10.65;;;6.20;;
77800;SDS011;66991;50.058;14.454;2023-08-20T12:42:48;7.45;;;5.47;;
77800;SDS011;66991;50.058;14.454;2023-08-20T12:45:13;8.45;;;5.47;;
77800;SDS011;66991;50.058;14.454;2023-08-20T12:47:38;8.65;;;5.88;;
77800;SDS011;66991;50.058;14.454;2023-08-20T12:50:04;7.88;;;6.28;;
77800;SDS011;66991;50.058;14.454;2023-08-20T12:52:30;9.07;;;6.10;;
77800;SDS011;66991;50.058;14.454;2023-08-20T12:54:56;8.75;;;5.43;;
77800;SDS011;66991;50.058;14.454;2023-08-20T12:57:21;8.55;;;6.13;;
77800;SDS011;66991;50.058;14.454;2023-08-20T12:59:47;9.45;;;6.30;;
77800;SDS011;66991;50.058;14.454;2023-08-20T13:02:12;9.52;;;5.88;;
77800;SDS011;66991;50.058;14.454;2023-08-20T13:04:38;9.43;;;5.63;;
77800;SDS011;66991;50.058;14.454;2023-08-20T13:07:03;8.25;;;4.90;;
77800;SDS011;66991;50.058;14.454;2023-08-20T13:09:29;9.43;;;5.15;;
77800;SDS011;66991;50.058;14.454;2023-08-20T13:11:56;8.30;;;5.43;;
77800;SDS011;66991;50.058;14.454;2023-08-20T13:14:22;6.63;;;5.05;;
77800;SDS011;66991;50.058;14.454;2023-08-20T13:16:47;6.55;;;5.32;;
77800;SDS011;66991;50.058;14.454;2023-08-20T13:19:13;9.38;;;5.05;;
77800;SDS011;66991;50.058;14.454;2023-08-20T13:21:39;6.75;;;4.78;;
77800;SDS011;66991;50.058;14.454;2023-08-20T13:24:06;8.50;;;5.28;;
77800;SDS011;66991;50.058;14.454;2023-08-20T13:26:31;6.93;;;4.90;;
77800;SDS011;66991;50.058;14.454;2023-08-20T13:28:57;6.65;;;5.05;;
77800;SDS011;66991;50.058;14.454;2023-08-20T13:31:22;6.88;;;5.30;;
77800;SDS011;66991;50.058;14.454;2023-08-20T13:33:47;25.92;;;6.05;;
77800;SDS011;66991;50.058;14.454;2023-08-20T13:36:14;6.88;;;5.13;;
77800;SDS011;66991;50.058;14.454;2023-08-20T13:38:40;9.68;;;4.97;;
77800;SDS011;66991;50.058;14.454;2023-08-20T13:41:06;11.80;;;4.75;;
77800;SDS011;66991;50.058;14.454;2023-08-20T13:43:31;8.73;;;5.22;;
77800;SDS011;66991;50.058;14.454;2023-08-20T13:45:56;8.68;;;5.03;;
77800;SDS011;66991;50.058;14.454;2023-08-20T13:48:22;12.05;;;4.95;;
77800;SDS011;66991;50.058;14.454;2023-08-20T13:50:47;7.25;;;5.15;;
77800;SDS011;66991;50.058;14.454;2023-08-20T13:53:12;10.10;;;5.43;;
77800;SDS011;66991;50.058;14.454;2023-08-20T13:55:38;8.07;;;4.78;;
77800;SDS011;66991;50.058;14.454;2023-08-20T13:58:03;9.32;;;4.63;;
77800;SDS011;66991;50.058;14.454;2023-08-20T14:00:28;6.53;;;4.70;;
77800;SDS011;66991;50.058;14.454;2023-08-20T14:02:54;12.02;;;5.00;;
77800;SDS011;66991;50.058;14.454;2023-08-20T14:05:19;7.40;;;5.00;;
77800;SDS011;66991;50.058;14.454;2023-08-20T14:07:44;9.68;;;4.68;;
77800;SDS011;66991;50.058;14.454;2023-08-20T14:10:10;9.45;;;5.22;;
77800;SDS011;66991;50.058;14.454;2023-08-20T14:12:36;9.77;;;5.30;;
77800;SDS011;66991;50.058;14.454;2023-08-20T14:15:01;4.82;;;4.32;;
77800;SDS011;66991;50.058;14.454;2023-08-20T14:17:27;7.05;;;4.72;;
77800;SDS011;66991;50.058;14.454;2023-08-20T14:19:52;15.00;;;5.78;;
77800;SDS011;66991;50.058;14.454;2023-08-20T14:22:17;11.60;;;5.40;;
77800;SDS011;66991;50.058;14.454;2023-08-20T14:24:43;7.15;;;4.72;;
77800;SDS011;66991;50.058;14.454;2023-08-20T14:27:08;8.57;;;5.03;;
77800;SDS011;66991;50.058;14.454;2023-08-20T14:29:34;18.83;;;5.30;;
77800;SDS011;66991;50.058;14.454;2023-08-20T14:32:00;9.30;;;4.88;;